sensor_id;sensor_type;location;lat;lon;timestamp;pressure;altitude;pressure_sealevel;temperature;humidity
31082;BME280;17737;52.586;13.284;2023-01-27T00:01:09;101730.50;;;0.22;90.83
31082;BME280;17737;52.586;13.284;2023-01-27T00:03:37;101739.13;;;0.26;90.48
31082;BME280;17737;52.586;13.284;2023-01-27T00:06:06;101733.44;;;0.16;91.10
31082;BME280;17737;52.586;13.284;2023-01-27T00:08:37;101731.03;;;0.29;91.03
31082;BME280;17737;52.586;13.284;2023-01-27T00:11:05;101739.06;;;0.27;90.62
31082;BME280;17737;52.586;13.284;2023-01-27T00:13:51;101738.28;;;0.25;90.90
31082;BME280;17737;52.586;13.284;2023-01-27T00:16:19;101738.28;;;0.25;90.99
31082;BME280;17737;52.586;13.284;2023-01-27T00:18:47;101739.38;;;0.21;91.48
31082;BME280;17737;52.586;13.284;2023-01-27T00:21:16;101733.34;;;0.35;90.89
31082;BME280;17737;52.586;13.284;2023-01-27T00:24:01;101735.63;;;0.25;91.09
31082;BME280;17737;52.586;13.284;2023-01-27T00:26:55;101740.75;;;0.45;90.70
31082;BME280;17737;52.586;13.284;2023-01-27T00:29:23;101736.50;;;0.58;90.22
31082;BME280;17737;52.586;13.284;2023-01-27T00:31:51;101732.56;;;0.33;90.75
31082;BME280;17737;52.586;13.284;2023-01-27T00:34:37;101729.63;;;0.22;90.73
31082;BME280;17737;52.586;13.284;2023-01-27T00:37:09;101740.94;;;0.25;91.52
31082;BME280;17737;52.586;13.284;2023-01-27T00:39:37;101737.50;;;0.23;90.95
31082;BME280;17737;52.586;13.284;2023-01-27T00:42:05;101745.00;;;0.32;91.08
31082;BME280;17737;52.586;13.284;2023-01-27T00:44:33;101744.28;;;0.29;91.17
31082;BME280;17737;52.586;13.284;2023-01-27T00:47:01;101744.41;;;0.43;91.01
31082;BME280;17737;52.586;13.284;2023-01-27T00:49:29;101737.78;;;0.34;90.70
31082;BME280;17737;52.586;13.284;2023-01-27T00:51:57;101737.47;;;0.40;90.69
31082;BME280;17737;52.586;13.284;2023-01-27T00:54:26;101746.22;;;0.42;90.44
31082;BME280;17737;52.586;13.284;2023-01-27T00:56:54;101743.88;;;0.36;90.33
31082;BME280;17737;52.586;13.284;2023-01-27T00:59:22;101742.09;;;0.37;90.48
31082;BME280;17737;52.586;13.284;2023-01-27T01:01:50;101746.31;;;0.41;90.65
31082;BME280;17737;52.586;13.284;2023-01-27T01:04:18;101743.47;;;0.61;90.17
31082;BME280;17737;52.586;13.284;2023-01-27T01:06:46;101748.63;;;0.47;89.96
31082;BME280;17737;52.586;13.284;2023-01-27T01:09:14;101754.25;;;0.41;90.37
31082;BME280;17737;52.586;13.284;2023-01-27T01:11:44;101754.53;;;0.52;90.90
31082;BME280;17737;52.586;13.284;2023-01-27T01:14:11;101761.84;;;0.64;90.02
31082;BME280;17737;52.586;13.284;2023-01-27T01:16:40;101752.66;;;0.54;89.87
31082;BME280;17737;52.586;13.284;2023-01-27T01:19:08;101754.88;;;0.46;90.46
31082;BME280;17737;52.586;13.284;2023-01-27T01:21:36;101754.28;;;0.56;90.29
31082;BME280;17737;52.586;13.284;2023-01-27T01:24:06;101762.47;;;0.69;89.36
31082;BME280;17737;52.586;13.284;2023-01-27T01:26:34;101761.94;;;0.62;89.70
31082;BME280;17737;52.586;13.284;2023-01-27T01:29:04;101761.63;;;0.51;90.09
31082;BME280;17737;52.586;13.284;2023-01-27T01:31:32;101766.16;;;0.66;89.85
31082;BME280;17737;52.586;13.284;2023-01-27T01:34:00;101764.31;;;0.84;88.51
31082;BME280;17737;52.586;13.284;2023-01-27T01:36:28;101755.28;;;0.71;89.26
31082;BME280;17737;52.586;13.284;2023-01-27T01:38:56;101759.00;;;0.84;88.88
31082;BME280;17737;52.586;13.284;2023-01-27T01:41:25;101771.69;;;0.62;89.40
31082;BME280;17737;52.586;13.284;2023-01-27T01:43:53;101768.00;;;0.81;88.97
31082;BME280;17737;52.586;13.284;2023-01-27T01:46:23;101774.00;;;0.85;88.93
31082;BME280;17737;52.586;13.284;2023-01-27T01:48:51;101774.13;;;0.66;89.45
31082;BME280;17737;52.586;13.284;2023-01-27T01:51:25;101779.63;;;0.62;89.53
31082;BME280;17737;52.586;13.284;2023-01-27T01:53:59;101776.06;;;0.63;89.51
31082;BME280;17737;52.586;13.284;2023-01-27T01:56:33;101775.19;;;0.62;89.40
31082;BME280;17737;52.586;13.284;2023-01-27T01:59:08;101778.03;;;0.59;89.50
31082;BME280;17737;52.586;13.284;2023-01-27T02:01:42;101770.06;;;0.59;89.58
31082;BME280;17737;52.586;13.284;2023-01-27T02:04:14;101772.84;;;0.56;90.14
31082;BME280;17737;52.586;13.284;2023-01-27T02:06:49;101771.16;;;0.55;90.50
31082;BME280;17737;52.586;13.284;2023-01-27T02:09:26;101770.97;;;0.58;89.99
31082;BME280;17737;52.586;13.284;2023-01-27T02:11:57;101768.50;;;0.55;89.96
31082;BME280;17737;52.586;13.284;2023-01-27T02:14:25;101771.00;;;0.41;90.53
31082;BME280;17737;52.586;13.284;2023-01-27T02:16:55;101769.66;;;0.50;90.05
31082;BME280;17737;52.586;13.284;2023-01-27T02:19:30;101768.66;;;0.52;90.58
31082;BME280;17737;52.586;13.284;2023-01-27T02:22:08;101767.97;;;0.49;90.40
31082;BME280;17737;52.586;13.284;2023-01-27T02:24:43;101764.41;;;0.65;90.32
31082;BME280;17737;52.586;13.284;2023-01-27T02:27:17;101770.19;;;0.56;89.94
31082;BME280;17737;52.586;13.284;2023-01-27T02:29:45;101765.28;;;0.66;89.69
31082;BME280;17737;52.586;13.284;2023-01-27T02:32:21;101770.97;;;0.58;90.56
31082;BME280;17737;52.586;13.284;2023-01-27T02:34:51;101770.63;;;0.49;90.88
31082;BME280;17737;52.586;13.284;2023-01-27T02:37:22;101766.16;;;0.66;90.48
31082;BME280;17737;52.586;13.284;2023-01-27T02:39:51;101782.19;;;0.63;90.57
31082;BME280;17737;52.586;13.284;2023-01-27T02:42:23;101782.00;;;0.51;90.36
31082;BME280;17737;52.586;13.284;2023-01-27T02:44:51;101781.22;;;0.49;91.22
31082;BME280;17737;52.586;13.284;2023-01-27T02:47:19;101778.94;;;0.58;90.59
31082;BME280;17737;52.586;13.284;2023-01-27T02:49:47;101779.44;;;0.49;91.27
31082;BME280;17737;52.586;13.284;2023-01-27T02:52:15;101790.78;;;0.68;90.75
31082;BME280;17737;52.586;13.284;2023-01-27T02:54:43;101793.91;;;0.76;89.87
31082;BME280;17737;52.586;13.284;2023-01-27T02:57:11;101794.22;;;0.53;90.30
31082;BME280;17737;52.586;13.284;2023-01-27T02:59:40;101791.88;;;0.64;89.50
31082;BME280;17737;52.586;13.284;2023-01-27T03:02:08;101790.06;;;0.65;89.79
31082;BME280;17737;52.586;13.284;2023-01-27T03:04:40;101791.91;;;0.47;89.97
31082;BME280;17737;52.586;13.284;2023-01-27T03:07:08;101788.84;;;0.38;90.71
31082;BME280;17737;52.586;13.284;2023-01-27T03:09:38;101790.97;;;0.48;91.57
31082;BME280;17737;52.586;13.284;2023-01-27T03:12:06;101791.19;;;0.61;90.91
31082;BME280;17737;52.586;13.284;2023-01-27T03:14:48;101792.25;;;0.74;90.20
31082;BME280;17737;52.586;13.284;2023-01-27T03:17:35;101782.56;;;0.90;89.97
31082;BME280;17737;52.586;13.284;2023-01-27T03:20:22;101777.94;;;0.61;90.52
31082;BME280;17737;52.586;13.284;2023-01-27T03:22:50;101777.06;;;0.60;90.94
31082;BME280;17737;52.586;13.284;2023-01-27T03:25:18;101785.97;;;0.59;91.18
31082;BME280;17737;52.586;13.284;2023-01-27T03:27:46;101785.16;;;0.74;90.55
31082;BME280;17737;52.586;13.284;2023-01-27T03:30:16;101785.63;;;0.65;90.54
31082;BME280;17737;52.586;13.284;2023-01-27T03:32:44;101788.13;;;0.68;90.60
31082;BME280;17737;52.586;13.284;2023-01-27T03:35:13;101780.97;;;0.53;91.21
31082;BME280;17737;52.586;13.284;2023-01-27T03:37:42;101789.88;;;0.52;91.20
31082;BME280;17737;52.586;13.284;2023-01-27T03:40:27;101792.34;;;0.72;90.66
31082;BME280;17737;52.586;13.284;2023-01-27T03:43:13;101790.66;;;0.54;91.22
31082;BME280;17737;52.586;13.284;2023-01-27T03:46:00;101794.31;;;0.52;91.49
31082;BME280;17737;52.586;13.284;2023-01-27T03:48:51;101793.69;;;0.64;91.51
31082;BME280;17737;52.586;13.284;2023-01-27T03:51:22;101798.03;;;0.48;91.39
31082;BME280;17737;52.586;13.284;2023-01-27T03:53:51;101790.50;;;0.57;91.17
31082;BME280;17737;52.586;13.284;2023-01-27T03:56:20;101801.41;;;0.51;91.60
31082;BME280;17737;52.586;13.284;2023-01-27T03:58:49;101787.44;;;0.65;90.75
31082;BME280;17737;52.586;13.284;2023-01-27T04:01:20;101795.00;;;0.55;91.11
31082;BME280;17737;52.586;13.284;2023-01-27T04:03:50;101794.16;;;0.55;91.09
31082;BME280;17737;52.586;13.284;2023-01-27T04:06:37;101788.91;;;0.70;90.85
31082;BME280;17737;52.586;13.284;2023-01-27T04:09:21;101789.88;;;0.52;90.78
31082;BME280;17737;52.586;13.284;2023-01-27T04:11:50;101787.84;;;0.57;91.15
31082;BME280;17737;52.586;13.284;2023-01-27T04:14:22;101789.41;;;0.61;91.00
31082;BME280;17737;52.586;13.284;2023-01-27T04:16:54;101786.59;;;0.47;91.51
31082;BME280;17737;52.586;13.284;2023-01-27T04:19:26;101782.22;;;0.46;91.75
31082;BME280;17737;52.586;13.284;2023-01-27T04:21:56;101784.03;;;0.46;91.72
31082;BME280;17737;52.586;13.284;2023-01-27T04:24:25;101792.81;;;0.46;91.51
31082;BME280;17737;52.586;13.284;2023-01-27T04:26:57;101789.19;;;0.49;91.81
31082;BME280;17737;52.586;13.284;2023-01-27T04:29:27;101792.91;;;0.45;91.70
31082;BME280;17737;52.586;13.284;2023-01-27T04:31:58;101790.50;;;0.40;91.90
31082;BME280;17737;52.586;13.284;2023-01-27T04:34:26;101791.91;;;0.47;91.74
31082;BME280;17737;52.586;13.284;2023-01-27T04:36:55;101789.53;;;0.58;91.56
31082;BME280;17737;52.586;13.284;2023-01-27T04:39:26;101788.13;;;0.51;91.94
31082;BME280;17737;52.586;13.284;2023-01-27T04:41:54;101789.88;;;0.52;91.41
31082;BME280;17737;52.586;13.284;2023-01-27T04:44:23;101793.44;;;0.51;91.52
31082;BME280;17737;52.586;13.284;2023-01-27T04:46:51;101804.84;;;0.53;91.75
31082;BME280;17737;52.586;13.284;2023-01-27T04:49:21;101797.03;;;0.50;91.79
31082;BME280;17737;52.586;13.284;2023-01-27T04:51:52;101793.16;;;0.57;91.81
31082;BME280;17737;52.586;13.284;2023-01-27T04:54:20;101801.19;;;0.56;91.41
31082;BME280;17737;52.586;13.284;2023-01-27T04:56:55;101794.22;;;0.53;92.10
31082;BME280;17737;52.586;13.284;2023-01-27T04:59:25;101802.03;;;0.56;91.80
31082;BME280;17737;52.586;13.284;2023-01-27T05:01:53;101800.78;;;0.46;92.04
31082;BME280;17737;52.586;13.284;2023-01-27T05:04:23;101811.97;;;0.53;92.31
31082;BME280;17737;52.586;13.284;2023-01-27T05:06:52;101813.91;;;0.49;92.37
31082;BME280;17737;52.586;13.284;2023-01-27T05:09:21;101807.41;;;0.55;91.99
31082;BME280;17737;52.586;13.284;2023-01-27T05:11:49;101819.91;;;0.53;92.39
31082;BME280;17737;52.586;13.284;2023-01-27T05:14:17;101826.84;;;0.55;92.18
31082;BME280;17737;52.586;13.284;2023-01-27T05:16:48;101830.25;;;0.57;91.91
31082;BME280;17737;52.586;13.284;2023-01-27T05:19:17;101830.25;;;0.57;91.45
31082;BME280;17737;52.586;13.284;2023-01-27T05:21:46;101835.88;;;0.51;91.91
31082;BME280;17737;52.586;13.284;2023-01-27T05:24:14;101841.88;;;0.55;92.22
31082;BME280;17737;52.586;13.284;2023-01-27T05:26:42;101841.22;;;0.84;91.87
31082;BME280;17737;52.586;13.284;2023-01-27T05:29:10;101838.22;;;0.74;91.32
31082;BME280;17737;52.586;13.284;2023-01-27T05:31:38;101834.91;;;0.86;91.29
31082;BME280;17737;52.586;13.284;2023-01-27T05:34:07;101841.72;;;0.75;91.55
31082;BME280;17737;52.586;13.284;2023-01-27T05:36:36;101844.69;;;0.69;92.15
31082;BME280;17737;52.586;13.284;2023-01-27T05:39:05;101848.50;;;0.63;92.13
31082;BME280;17737;52.586;13.284;2023-01-27T05:41:34;101850.84;;;0.69;92.36
31082;BME280;17737;52.586;13.284;2023-01-27T05:44:03;101848.59;;;0.62;92.51
31082;BME280;17737;52.586;13.284;2023-01-27T05:46:31;101847.59;;;0.64;92.56
31082;BME280;17737;52.586;13.284;2023-01-27T05:49:01;101851.16;;;0.63;92.43
31082;BME280;17737;52.586;13.284;2023-01-27T05:51:33;101852.47;;;0.72;92.20
31082;BME280;17737;52.586;13.284;2023-01-27T05:54:03;101857.31;;;0.64;92.69
31082;BME280;17737;52.586;13.284;2023-01-27T05:56:33;101866.22;;;0.63;93.09
31082;BME280;17737;52.586;13.284;2023-01-27T05:59:01;101865.72;;;0.72;93.21
31082;BME280;17737;52.586;13.284;2023-01-27T06:01:31;101860.34;;;0.73;92.63
31082;BME280;17737;52.586;13.284;2023-01-27T06:04:00;101855.53;;;0.81;93.05
31082;BME280;17737;52.586;13.284;2023-01-27T06:06:30;101849.19;;;0.84;93.25
31082;BME280;17737;52.586;13.284;2023-01-27T06:08:59;101852.97;;;0.80;92.95
31082;BME280;17737;52.586;13.284;2023-01-27T06:11:29;101852.25;;;0.76;93.24
31082;BME280;17737;52.586;13.284;2023-01-27T06:13:57;101850.22;;;0.81;92.71
31082;BME280;17737;52.586;13.284;2023-01-27T06:16:25;101849.88;;;0.87;92.79
31082;BME280;17737;52.586;13.284;2023-01-27T06:18:53;101853.69;;;0.99;92.56
31082;BME280;17737;52.586;13.284;2023-01-27T06:21:21;101848.38;;;0.99;92.77
31082;BME280;17737;52.586;13.284;2023-01-27T06:23:49;101850.41;;;0.94;92.49
31082;BME280;17737;52.586;13.284;2023-01-27T06:26:18;101861.25;;;1.06;92.23
31082;BME280;17737;52.586;13.284;2023-01-27T06:28:48;101861.50;;;1.02;92.47
31082;BME280;17737;52.586;13.284;2023-01-27T06:31:17;101858.53;;;1.08;92.29
31082;BME280;17737;52.586;13.284;2023-01-27T06:33:48;101858.16;;;0.98;92.39
31082;BME280;17737;52.586;13.284;2023-01-27T06:36:19;101867.44;;;1.07;92.50
31082;BME280;17737;52.586;13.284;2023-01-27T06:38:48;101869.84;;;1.11;92.43
31082;BME280;17737;52.586;13.284;2023-01-27T06:41:16;101867.81;;;0.99;92.86
31082;BME280;17737;52.586;13.284;2023-01-27T06:43:45;101867.56;;;1.04;92.90
31082;BME280;17737;52.586;13.284;2023-01-27T06:46:14;101868.88;;;1.12;92.81
31082;BME280;17737;52.586;13.284;2023-01-27T06:48:42;101871.00;;;1.06;92.56
31082;BME280;17737;52.586;13.284;2023-01-27T06:51:10;101877.84;;;1.27;92.64
31082;BME280;17737;52.586;13.284;2023-01-27T06:53:39;101875.22;;;1.43;91.21
31082;BME280;17737;52.586;13.284;2023-01-27T06:56:07;101865.75;;;1.21;92.02
31082;BME280;17737;52.586;13.284;2023-01-27T06:58:35;101867.09;;;1.13;92.29
31082;BME280;17737;52.586;13.284;2023-01-27T07:01:04;101877.72;;;1.13;92.80
31082;BME280;17737;52.586;13.284;2023-01-27T07:03:34;101879.41;;;1.31;92.44
31082;BME280;17737;52.586;13.284;2023-01-27T07:06:03;101889.94;;;1.33;91.89
31082;BME280;17737;52.586;13.284;2023-01-27T07:08:31;101893.00;;;1.25;92.48
31082;BME280;17737;52.586;13.284;2023-01-27T07:11:01;101890.72;;;1.17;93.12
31082;BME280;17737;52.586;13.284;2023-01-27T07:13:30;101891.94;;;1.45;92.48
31082;BME280;17737;52.586;13.284;2023-01-27T07:15:58;101898.81;;;1.32;92.62
31082;BME280;17737;52.586;13.284;2023-01-27T07:18:27;101897.47;;;1.40;92.63
31082;BME280;17737;52.586;13.284;2023-01-27T07:20:56;101900.38;;;1.36;93.13
31082;BME280;17737;52.586;13.284;2023-01-27T07:23:24;101899.38;;;1.54;92.30
31082;BME280;17737;52.586;13.284;2023-01-27T07:25:52;101903.16;;;1.50;92.32
31082;BME280;17737;52.586;13.284;2023-01-27T07:28:20;101898.13;;;1.61;92.12
31082;BME280;17737;52.586;13.284;2023-01-27T07:30:48;101906.78;;;1.64;91.83
31082;BME280;17737;52.586;13.284;2023-01-27T07:33:16;101914.25;;;1.73;92.06
31082;BME280;17737;52.586;13.284;2023-01-27T07:35:47;101904.72;;;1.69;92.05
31082;BME280;17737;52.586;13.284;2023-01-27T07:38:17;101896.84;;;1.68;91.89
31082;BME280;17737;52.586;13.284;2023-01-27T07:40:45;101906.38;;;1.72;92.33
31082;BME280;17737;52.586;13.284;2023-01-27T07:43:13;101899.25;;;1.72;92.79
31082;BME280;17737;52.586;13.284;2023-01-27T07:45:41;101913.38;;;1.73;92.86
31082;BME280;17737;52.586;13.284;2023-01-27T07:48:09;101912.44;;;1.74;92.66
31082;BME280;17737;52.586;13.284;2023-01-27T07:50:39;101909.88;;;1.72;92.86
31082;BME280;17737;52.586;13.284;2023-01-27T07:53:09;101918.53;;;1.76;93.28
31082;BME280;17737;52.586;13.284;2023-01-27T07:55:39;101919.31;;;1.78;93.46
31082;BME280;17737;52.586;13.284;2023-01-27T07:58:08;101921.72;;;1.82;92.89
31082;BME280;17737;52.586;13.284;2023-01-27T08:00:36;101919.66;;;1.87;93.04
31082;BME280;17737;52.586;13.284;2023-01-27T08:03:04;101928.31;;;1.91;93.04
31082;BME280;17737;52.586;13.284;2023-01-27T08:05:33;101918.97;;;1.99;93.03
31082;BME280;17737;52.586;13.284;2023-01-27T08:08:04;101917.09;;;2.01;93.28
31082;BME280;17737;52.586;13.284;2023-01-27T08:10:32;101924.06;;;2.04;92.99
31082;BME280;17737;52.586;13.284;2023-01-27T08:13:01;101921.31;;;2.05;92.66
31082;BME280;17737;52.586;13.284;2023-01-27T08:15:29;101921.13;;;2.08;92.82
31082;BME280;17737;52.586;13.284;2023-01-27T08:17:58;101929.59;;;2.15;92.44
31082;BME280;17737;52.586;13.284;2023-01-27T08:20:27;101927.72;;;2.17;92.89
31082;BME280;17737;52.586;13.284;2023-01-27T08:22:55;101931.16;;;2.19;92.71
31082;BME280;17737;52.586;13.284;2023-01-27T08:25:23;101933.72;;;2.20;92.74
31082;BME280;17737;52.586;13.284;2023-01-27T08:27:53;101931.16;;;2.19;92.77
31082;BME280;17737;52.586;13.284;2023-01-27T08:30:23;101937.06;;;2.24;92.78
31082;BME280;17737;52.586;13.284;2023-01-27T08:32:52;101937.69;;;2.29;92.61
31082;BME280;17737;52.586;13.284;2023-01-27T08:35:20;101938.38;;;2.32;92.43
31082;BME280;17737;52.586;13.284;2023-01-27T08:37:48;101939.03;;;2.36;92.50
31082;BME280;17737;52.586;13.284;2023-01-27T08:40:17;101933.81;;;2.34;92.23
31082;BME280;17737;52.586;13.284;2023-01-27T08:42:45;101936.97;;;2.41;92.68
31082;BME280;17737;52.586;13.284;2023-01-27T08:45:13;101940.50;;;2.41;92.47
31082;BME280;17737;52.586;13.284;2023-01-27T08:47:42;101939.53;;;2.42;92.50
31082;BME280;17737;52.586;13.284;2023-01-27T08:50:10;101938.66;;;2.58;92.27
31082;BME280;17737;52.586;13.284;2023-01-27T08:52:39;101945.44;;;2.63;92.30
31082;BME280;17737;52.586;13.284;2023-01-27T08:55:07;101948.09;;;2.63;92.14
31082;BME280;17737;52.586;13.284;2023-01-27T08:57:35;101939.84;;;2.68;92.44
31082;BME280;17737;52.586;13.284;2023-01-27T09:00:09;101948.59;;;2.70;92.58
31082;BME280;17737;52.586;13.284;2023-01-27T09:02:39;101946.63;;;2.73;92.05
31082;BME280;17737;52.586;13.284;2023-01-27T09:05:08;101947.03;;;2.81;91.71
31082;BME280;17737;52.586;13.284;2023-01-27T09:07:36;101951.84;;;2.75;92.04
31082;BME280;17737;52.586;13.284;2023-01-27T09:10:05;101956.50;;;2.71;92.01
31082;BME280;17737;52.586;13.284;2023-01-27T09:12:45;101969.38;;;2.79;92.22
31082;BME280;17737;52.586;13.284;2023-01-27T09:15:13;101964.13;;;2.77;92.01
31082;BME280;17737;52.586;13.284;2023-01-27T09:17:42;101965.75;;;2.80;91.91
31082;BME280;17737;52.586;13.284;2023-01-27T09:20:12;101967.72;;;2.76;92.06
31082;BME280;17737;52.586;13.284;2023-01-27T09:22:41;101977.44;;;2.77;91.94
31082;BME280;17737;52.586;13.284;2023-01-27T09:25:13;101989.88;;;2.77;92.16
31082;BME280;17737;52.586;13.284;2023-01-27T09:27:42;101982.47;;;2.82;91.97
31082;BME280;17737;52.586;13.284;2023-01-27T09:30:13;101981.72;;;2.80;91.79
31082;BME280;17737;52.586;13.284;2023-01-27T09:32:42;101968.22;;;2.83;91.84
31082;BME280;17737;52.586;13.284;2023-01-27T09:35:12;101986.84;;;2.83;91.82
31082;BME280;17737;52.586;13.284;2023-01-27T09:37:43;101984.88;;;2.86;91.61
31082;BME280;17737;52.586;13.284;2023-01-27T09:40:29;101986.78;;;2.84;91.86
31082;BME280;17737;52.586;13.284;2023-01-27T09:46:28;101989.25;;;2.87;91.54
31082;BME280;17737;52.586;13.284;2023-01-27T09:52:31;101991.84;;;2.89;91.59
31082;BME280;17737;52.586;13.284;2023-01-27T09:55:23;101996.66;;;2.82;91.72
31082;BME280;17737;52.586;13.284;2023-01-27T09:58:10;101993.91;;;2.84;91.74
31082;BME280;17737;52.586;13.284;2023-01-27T10:00:57;101999.41;;;2.81;91.79
31082;BME280;17737;52.586;13.284;2023-01-27T10:04:02;102006.53;;;2.80;91.74
31082;BME280;17737;52.586;13.284;2023-01-27T10:06:53;101999.91;;;2.87;91.81
31082;BME280;17737;52.586;13.284;2023-01-27T10:12:58;101994.59;;;2.87;91.69
31082;BME280;17737;52.586;13.284;2023-01-27T10:15:51;101996.09;;;2.91;92.02
31082;BME280;17737;52.586;13.284;2023-01-27T10:18:41;102006.69;;;2.93;91.85
31082;BME280;17737;52.586;13.284;2023-01-27T10:21:30;101999.28;;;2.98;91.67
31082;BME280;17737;52.586;13.284;2023-01-27T10:24:12;102002.97;;;2.95;91.70
31082;BME280;17737;52.586;13.284;2023-01-27T10:26:56;102008.13;;;2.98;91.51
31082;BME280;17737;52.586;13.284;2023-01-27T10:29:38;102008.19;;;2.97;91.62
31082;BME280;17737;52.586;13.284;2023-01-27T10:32:19;102008.69;;;3.03;91.65
31082;BME280;17737;52.586;13.284;2023-01-27T10:35:04;102000.28;;;3.11;91.87
31082;BME280;17737;52.586;13.284;2023-01-27T10:37:46;102008.44;;;3.08;91.23
31082;BME280;17737;52.586;13.284;2023-01-27T10:40:32;102015.75;;;3.04;91.27
31082;BME280;17737;52.586;13.284;2023-01-27T10:43:13;102016.53;;;3.06;90.93
31082;BME280;17737;52.586;13.284;2023-01-27T10:45:52;102008.88;;;3.00;90.96
31082;BME280;17737;52.586;13.284;2023-01-27T10:48:32;102010.88;;;2.97;91.31
31082;BME280;17737;52.586;13.284;2023-01-27T10:51:09;102009.34;;;2.93;91.47
31082;BME280;17737;52.586;13.284;2023-01-27T10:53:48;102012.75;;;2.95;91.51
31082;BME280;17737;52.586;13.284;2023-01-27T10:56:31;102013.09;;;3.04;91.67
31082;BME280;17737;52.586;13.284;2023-01-27T10:59:09;102006.03;;;3.03;91.46
31082;BME280;17737;52.586;13.284;2023-01-27T11:01:45;102011.22;;;3.06;91.25
31082;BME280;17737;52.586;13.284;2023-01-27T11:04:26;102011.38;;;3.03;90.34
31082;BME280;17737;52.586;13.284;2023-01-27T11:07:02;102027.44;;;3.02;90.35
31082;BME280;17737;52.586;13.284;2023-01-27T11:09:34;102009.81;;;3.15;90.67
31082;BME280;17737;52.586;13.284;2023-01-27T11:12:10;102013.31;;;3.15;90.32
31082;BME280;17737;52.586;13.284;2023-01-27T11:14:44;102022.34;;;3.13;90.48
31082;BME280;17737;52.586;13.284;2023-01-27T11:17:27;102017.41;;;3.21;90.75
31082;BME280;17737;52.586;13.284;2023-01-27T11:20:04;102017.22;;;3.24;90.67
31082;BME280;17737;52.586;13.284;2023-01-27T11:22:47;102015.63;;;3.21;90.91
31082;BME280;17737;52.586;13.284;2023-01-27T11:25:24;102012.97;;;3.21;90.44
31082;BME280;17737;52.586;13.284;2023-01-27T11:28:03;102010.31;;;3.21;91.13
31082;BME280;17737;52.586;13.284;2023-01-27T11:30:47;102005.47;;;3.28;91.27
31082;BME280;17737;52.586;13.284;2023-01-27T11:33:27;101997.91;;;3.20;90.67
31082;BME280;17737;52.586;13.284;2023-01-27T11:36:02;102012.28;;;3.18;91.06
31082;BME280;17737;52.586;13.284;2023-01-27T11:38:30;102009.09;;;3.27;91.14
31082;BME280;17737;52.586;13.284;2023-01-27T11:40:59;102009.09;;;3.27;91.13
31082;BME280;17737;52.586;13.284;2023-01-27T11:43:27;102003.16;;;3.22;91.05
31082;BME280;17737;52.586;13.284;2023-01-27T11:46:00;102005.81;;;3.22;90.83
31082;BME280;17737;52.586;13.284;2023-01-27T11:48:35;102004.09;;;3.21;91.46
31082;BME280;17737;52.586;13.284;2023-01-27T11:51:13;102003.72;;;3.13;90.58
31082;BME280;17737;52.586;13.284;2023-01-27T11:53:50;102011.28;;;3.05;90.84
31082;BME280;17737;52.586;13.284;2023-01-27T11:56:27;102015.56;;;3.07;91.12
31082;BME280;17737;52.586;13.284;2023-01-27T11:59:01;102009.72;;;3.16;91.25
31082;BME280;17737;52.586;13.284;2023-01-27T12:01:40;102020.09;;;3.21;90.82
31082;BME280;17737;52.586;13.284;2023-01-27T12:04:19;102011.50;;;3.16;90.32
31082;BME280;17737;52.586;13.284;2023-01-27T12:06:54;102019.00;;;3.09;90.53
31082;BME280;17737;52.586;13.284;2023-01-27T12:09:32;102009.97;;;3.12;90.79
31082;BME280;17737;52.586;13.284;2023-01-27T12:12:09;102022.59;;;3.08;90.33
31082;BME280;17737;52.586;13.284;2023-01-27T12:14:47;102019.78;;;3.11;89.48
31082;BME280;17737;52.586;13.284;2023-01-27T12:17:22;102004.81;;;3.09;89.10
31082;BME280;17737;52.586;13.284;2023-01-27T12:19:56;102017.22;;;3.10;89.43
31082;BME280;17737;52.586;13.284;2023-01-27T12:22:30;102012.53;;;3.13;88.56
31082;BME280;17737;52.586;13.284;2023-01-27T12:25:02;102010.34;;;3.06;88.20
31082;BME280;17737;52.586;13.284;2023-01-27T12:27:39;102011.75;;;2.97;87.65
31082;BME280;17737;52.586;13.284;2023-01-27T12:30:19;102015.16;;;2.99;87.85
31082;BME280;17737;52.586;13.284;2023-01-27T12:32:50;102014.47;;;3.11;87.85
31082;BME280;17737;52.586;13.284;2023-01-27T12:35:21;102018.13;;;3.09;87.55
31082;BME280;17737;52.586;13.284;2023-01-27T12:37:58;102017.22;;;3.10;87.51
31082;BME280;17737;52.586;13.284;2023-01-27T12:40:31;102014.38;;;3.13;87.69
31082;BME280;17737;52.586;13.284;2023-01-27T12:43:09;102016.06;;;3.14;87.45
31082;BME280;17737;52.586;13.284;2023-01-27T12:45:40;102012.63;;;3.12;87.94
31082;BME280;17737;52.586;13.284;2023-01-27T12:48:19;102011.78;;;3.11;87.88
31082;BME280;17737;52.586;13.284;2023-01-27T12:50:56;102012.53;;;3.13;88.06
31082;BME280;17737;52.586;13.284;2023-01-27T12:53:32;102005.91;;;3.20;88.04
31082;BME280;17737;52.586;13.284;2023-01-27T12:56:08;102007.88;;;3.17;87.17
31082;BME280;17737;52.586;13.284;2023-01-27T12:58:40;102011.50;;;3.16;87.17
31082;BME280;17737;52.586;13.284;2023-01-27T13:01:24;102012.63;;;3.12;87.09
31082;BME280;17737;52.586;13.284;2023-01-27T13:03:59;102016.47;;;3.22;86.86
31082;BME280;17737;52.586;13.284;2023-01-27T13:06:34;102014.56;;;3.24;86.81
31082;BME280;17737;52.586;13.284;2023-01-27T13:09:22;102012.38;;;3.16;86.91
31082;BME280;17737;52.586;13.284;2023-01-27T13:11:54;102015.38;;;3.10;86.66
31082;BME280;17737;52.586;13.284;2023-01-27T13:14:28;102023.56;;;3.07;87.38
31082;BME280;17737;52.586;13.284;2023-01-27T13:16:59;102022.69;;;3.07;87.66
31082;BME280;17737;52.586;13.284;2023-01-27T13:19:34;102017.56;;;3.04;87.46
31082;BME280;17737;52.586;13.284;2023-01-27T13:22:15;102019.81;;;2.96;86.84
31082;BME280;17737;52.586;13.284;2023-01-27T13:24:49;102016.56;;;2.91;87.38
31082;BME280;17737;52.586;13.284;2023-01-27T13:27:24;102022.38;;;2.97;87.45